createdAt,value
2024-04-06T00:02:09.771Z,98523.23
2024-04-06T00:04:39.218Z,98516.79
2024-04-06T00:07:07.695Z,98508.45
2024-04-06T00:09:37.120Z,98508.06
2024-04-06T00:12:06.409Z,98505.45
2024-04-06T00:14:34.868Z,98505.05
2024-04-06T00:17:03.369Z,98516.02
2024-04-06T00:19:31.826Z,98519.37
2024-04-06T00:22:00.408Z,98518.34
2024-04-06T00:24:28.863Z,98517.50
2024-04-06T00:26:57.327Z,98523.21
2024-04-06T00:29:25.836Z,98526.83
2024-04-06T00:31:54.350Z,98527.75
2024-04-06T00:34:22.952Z,98529.15
2024-04-06T00:36:51.901Z,98536.11
2024-04-06T00:39:20.372Z,98532.85
2024-04-06T00:41:49.099Z,98531.65
2024-04-06T00:44:17.603Z,98534.73
2024-04-06T00:46:46.088Z,98533.95
2024-04-06T00:49:14.674Z,98536.52
2024-04-06T00:51:43.133Z,98539.92
2024-04-06T00:54:12.275Z,98540.70
2024-04-06T00:56:40.870Z,98533.66
2024-04-06T00:59:09.473Z,98532.76
2024-04-06T01:01:41.915Z,98531.15
2024-04-06T01:04:12.846Z,98529.88
2024-04-06T01:06:41.318Z,98532.67
2024-04-06T01:09:09.945Z,98534.61
2024-04-06T01:11:39.583Z,98533.02
2024-04-06T01:14:08.177Z,98539.16
2024-04-06T01:16:36.762Z,98541.02
2024-04-06T01:19:05.224Z,98541.07
2024-04-06T01:21:33.768Z,98541.27
2024-04-06T01:24:30.439Z,98544.06
2024-04-06T01:27:01.243Z,98534.04
2024-04-06T01:29:31.613Z,98534.45
2024-04-06T01:32:00.155Z,98541.52
2024-04-06T01:34:28.618Z,98547.02
2024-04-06T01:36:57.118Z,98553.02
2024-04-06T01:39:25.662Z,98556.50
2024-04-06T01:41:54.212Z,98556.94
2024-04-06T01:44:22.715Z,98558.27
2024-04-06T01:46:51.196Z,98560.64
2024-04-06T01:49:21.003Z,98562.14
2024-04-06T01:51:49.533Z,98565.90
2024-04-06T01:54:18.053Z,98574.80
2024-04-06T01:56:46.584Z,98570.27
2024-04-06T01:59:15.058Z,98568.78
2024-04-06T02:01:44.965Z,98572.83
2024-04-06T02:04:13.442Z,98579.90
2024-04-06T02:06:41.904Z,98582.57
2024-04-06T02:09:10.653Z,98580.95
2024-04-06T02:11:39.140Z,98582.95
2024-04-06T02:14:07.665Z,98590.49
2024-04-06T02:16:36.138Z,98590.07
2024-04-06T02:19:04.840Z,98597.73
2024-04-06T02:21:33.303Z,98603.56
2024-04-06T02:24:01.785Z,98607.99
2024-04-06T02:26:30.333Z,98611.85
2024-04-06T02:28:59.214Z,98619.00
2024-04-06T02:31:28.253Z,98621.85
2024-04-06T02:33:56.732Z,98623.54
2024-04-06T02:36:25.317Z,98627.19
2024-04-06T02:38:53.797Z,98626.64
2024-04-06T02:41:22.426Z,98631.81
2024-04-06T02:43:51.207Z,98636.58
2024-04-06T02:46:19.741Z,98636.36
2024-04-06T02:48:49.790Z,98641.61
2024-04-06T02:51:18.315Z,98644.29
2024-04-06T02:53:46.800Z,98651.39
2024-04-06T02:56:15.342Z,98649.29
2024-04-06T02:58:44.390Z,98654.35
2024-04-06T03:01:13.323Z,98652.38
2024-04-06T03:03:41.806Z,98650.77
2024-04-06T03:06:10.425Z,98652.75
2024-04-06T03:08:38.893Z,98648.55
2024-04-06T03:11:07.386Z,98652.70
2024-04-06T03:13:35.867Z,98659.91
2024-04-06T03:16:04.572Z,98661.83
2024-04-06T03:18:33.095Z,98666.10
2024-04-06T03:21:01.874Z,98667.95
2024-04-06T03:23:30.374Z,98663.36
2024-04-06T03:25:58.954Z,98671.02
2024-04-06T03:28:27.446Z,98672.01
2024-04-06T03:30:55.913Z,98679.63
2024-04-06T03:33:24.788Z,98685.85
2024-04-06T03:35:53.285Z,98692.21
2024-04-06T03:38:21.781Z,98694.74
2024-04-06T03:40:50.439Z,98693.20
2024-04-06T03:43:18.947Z,98695.77
2024-04-06T03:45:51.676Z,98698.65
2024-04-06T03:48:20.166Z,98699.73
2024-04-06T03:50:48.667Z,98703.04
2024-04-06T03:53:18.053Z,98700.02
2024-04-06T03:55:46.586Z,98705.71
2024-04-06T03:58:15.313Z,98706.77
2024-04-06T04:00:43.947Z,98708.56
2024-04-06T04:03:12.546Z,98718.11
2024-04-06T04:05:41.212Z,98720.13
2024-04-06T04:08:09.792Z,98724.52
2024-04-06T04:10:39.084Z,98727.23
2024-04-06T04:13:10.737Z,98728.85
2024-04-06T04:15:39.888Z,98729.89
2024-04-06T04:18:10.705Z,98737.15
2024-04-06T04:20:39.198Z,98740.23
2024-04-06T04:23:07.718Z,98748.02
2024-04-06T04:25:36.254Z,98751.02
2024-04-06T04:28:05.630Z,98756.91
2024-04-06T04:30:34.126Z,98758.67
2024-04-06T04:33:02.631Z,98761.71
2024-04-06T04:35:31.420Z,98769.73
2024-04-06T04:37:59.932Z,98768.48
2024-04-06T04:40:28.481Z,98774.40
2024-04-06T04:42:57.001Z,98783.95
2024-04-06T04:45:25.481Z,98782.77
2024-04-06T04:47:53.926Z,98781.20
2024-04-06T04:50:22.424Z,98787.60
2024-04-06T04:52:51.428Z,98781.98
2024-04-06T04:55:20.272Z,98785.20
2024-04-06T04:57:49.258Z,98786.28
2024-04-06T05:00:17.738Z,98792.85
2024-04-06T05:02:46.358Z,98791.91
2024-04-06T05:05:15.033Z,98793.33
2024-04-06T05:07:43.497Z,98799.79
2024-04-06T05:10:12.067Z,98804.23
2024-04-06T05:12:40.515Z,98809.25
2024-04-06T05:15:09.163Z,98813.40
2024-04-06T05:17:38.601Z,98816.35
2024-04-06T05:20:07.521Z,98815.92
2024-04-06T05:22:36.029Z,98816.71
2024-04-06T05:25:04.699Z,98818.21
2024-04-06T05:27:33.179Z,98821.05
2024-04-06T05:30:01.963Z,98822.20
2024-04-06T05:32:30.553Z,98825.41
2024-04-06T05:34:59.085Z,98825.48
2024-04-06T05:37:27.609Z,98830.23
2024-04-06T05:39:56.234Z,98833.48
2024-04-06T05:42:24.892Z,98834.88
2024-04-06T05:44:53.357Z,98829.39
2024-04-06T05:47:21.847Z,98829.15
2024-04-06T05:49:50.367Z,98834.17
2024-04-06T05:52:18.941Z,98835.64
2024-04-06T05:54:47.424Z,98837.59
2024-04-06T05:57:15.895Z,98836.27
2024-04-06T05:59:44.360Z,98839.29
2024-04-06T06:02:12.940Z,98843.27
2024-04-06T06:04:41.418Z,98846.34
2024-04-06T06:07:10.381Z,98847.73
2024-04-06T06:09:38.858Z,98851.04
2024-04-06T06:12:07.505Z,98857.16
2024-04-06T06:14:36.015Z,98860.39
2024-04-06T06:17:04.669Z,98864.13
2024-04-06T06:19:33.209Z,98866.88
2024-04-06T06:22:01.673Z,98867.65
2024-04-06T06:24:31.085Z,98868.69
2024-04-06T06:26:59.553Z,98870.93
2024-04-06T06:29:28.042Z,98865.48
2024-04-06T06:31:56.550Z,98864.20
2024-04-06T06:34:25.008Z,98860.35
2024-04-06T06:41:56.520Z,98859.23
2024-04-06T06:44:24.990Z,98863.58
2024-04-06T06:46:53.461Z,98864.12
2024-04-06T06:49:21.927Z,98869.42
2024-04-06T06:51:50.408Z,98870.30
2024-04-06T06:54:18.893Z,98873.94
2024-04-06T06:56:47.343Z,98877.54
2024-04-06T06:59:16.251Z,98881.59
2024-04-06T07:01:44.748Z,98884.06
2024-04-06T07:04:13.802Z,98888.71
2024-04-06T07:09:13.827Z,98893.45
2024-04-06T07:11:42.279Z,98890.64
2024-04-06T07:14:12.596Z,98888.14
2024-04-06T07:16:41.061Z,98885.04
2024-04-06T07:19:10.427Z,98884.08
2024-04-06T07:21:39.211Z,98887.52
2024-04-06T07:24:30.124Z,98890.16
2024-04-06T07:26:58.609Z,98885.98
2024-04-06T07:29:27.081Z,98891.87
2024-04-06T07:31:55.543Z,98894.13
2024-04-06T07:34:24.002Z,98892.70
2024-04-06T07:36:52.561Z,98889.42
2024-04-06T07:39:21.016Z,98887.98
2024-04-06T07:41:49.466Z,98885.00
2024-04-06T07:44:17.974Z,98882.77
2024-04-06T07:46:46.423Z,98881.43
2024-04-06T07:49:14.985Z,98882.08
2024-04-06T07:51:43.476Z,98874.67
2024-04-06T07:54:11.935Z,98878.80
2024-04-06T07:56:57.233Z,98878.16
2024-04-06T07:59:25.772Z,98875.13
2024-04-06T08:01:54.260Z,98882.01
2024-04-06T08:04:22.751Z,98888.23
2024-04-06T08:06:52.507Z,98892.42
2024-04-06T08:09:21.000Z,98894.06
2024-04-06T08:11:49.447Z,98891.64
2024-04-06T08:14:24.349Z,98891.80
2024-04-06T08:16:54.041Z,98893.65
2024-04-06T08:19:22.606Z,98892.65
2024-04-06T08:21:51.709Z,98892.52
2024-04-06T08:24:20.364Z,98897.00
2024-04-06T08:26:48.868Z,98892.14
2024-04-06T08:29:17.591Z,98892.12
2024-04-06T08:31:46.059Z,98891.45
2024-04-06T08:34:14.989Z,98893.56
2024-04-06T08:36:43.485Z,98893.73
2024-04-06T08:39:12.002Z,98891.11
2024-04-06T08:41:44.417Z,98890.85
2024-04-06T08:44:14.374Z,98895.28
2024-04-06T08:46:42.966Z,98891.30
2024-04-06T08:49:14.477Z,98886.98
2024-04-06T08:51:43.197Z,98889.48
2024-04-06T08:54:11.896Z,98889.50
2024-04-06T08:56:43.985Z,98890.14
2024-04-06T08:59:12.470Z,98889.23
2024-04-06T09:01:40.928Z,98888.54
2024-04-06T09:04:09.439Z,98891.55
2024-04-06T09:06:41.410Z,98888.65
2024-04-06T09:09:09.906Z,98894.29
2024-04-06T09:11:44.315Z,98899.10
2024-04-06T09:14:13.401Z,98894.86
2024-04-06T09:16:42.153Z,98894.17
2024-04-06T09:19:10.662Z,98894.85
2024-04-06T09:21:39.137Z,98898.06
2024-04-06T09:24:07.728Z,98900.21
2024-04-06T09:26:36.227Z,98901.17
2024-04-06T09:29:04.666Z,98903.02
2024-04-06T09:31:36.552Z,98903.31
2024-04-06T09:34:05.033Z,98904.06
2024-04-06T09:36:40.885Z,98903.27
2024-04-06T09:39:10.522Z,98900.79
2024-04-06T09:41:39.682Z,98899.02
2024-04-06T09:44:08.374Z,98897.90
2024-04-06T09:46:37.901Z,98901.75
2024-04-06T09:49:06.526Z,98900.99
2024-04-06T09:51:34.987Z,98901.17
2024-04-06T09:54:04.309Z,98900.42
2024-04-06T09:56:33.146Z,98902.84
2024-04-06T09:59:01.725Z,98903.29
2024-04-06T10:01:31.393Z,98897.19
2024-04-06T10:03:59.870Z,98895.27
2024-04-06T10:06:29.920Z,98898.74
2024-04-06T10:09:01.004Z,98897.63
2024-04-06T10:11:29.990Z,98893.14
2024-04-06T10:14:06.414Z,98893.67
2024-04-06T10:16:38.324Z,98889.39
2024-04-06T10:19:08.353Z,98885.00
2024-04-06T10:21:46.694Z,98886.63
2024-04-06T10:24:15.398Z,98886.52
2024-04-06T10:26:53.884Z,98884.91
2024-04-06T10:29:23.508Z,98888.38
2024-04-06T10:31:52.054Z,98890.98
2024-04-06T10:34:20.596Z,98890.05
2024-04-06T10:36:49.683Z,98892.25
2024-04-06T10:39:18.735Z,98887.52
2024-04-06T10:41:47.302Z,98883.57
2024-04-06T10:44:15.962Z,98887.48
2024-04-06T10:46:44.565Z,98884.76
2024-04-06T10:49:14.968Z,98882.66
2024-04-06T10:51:43.645Z,98885.50
2024-04-06T10:54:12.170Z,98880.65
2024-04-06T10:56:41.860Z,98877.15
2024-04-06T10:59:11.531Z,98872.20
2024-04-06T11:01:41.532Z,98869.58
2024-04-06T11:04:13.535Z,98867.11
2024-04-06T11:06:42.100Z,98859.42
2024-04-06T11:09:11.547Z,98851.45
2024-04-06T11:11:40.439Z,98849.16
2024-04-06T11:14:11.655Z,98849.79
2024-04-06T11:16:42.569Z,98848.96
2024-04-06T11:19:14.237Z,98852.64
2024-04-06T11:21:42.820Z,98848.20
2024-04-06T11:24:11.678Z,98843.05
2024-04-06T11:26:40.168Z,98843.63
2024-04-06T11:29:11.598Z,98844.56
2024-04-06T11:31:40.108Z,98845.75
2024-04-06T11:34:10.075Z,98847.96
2024-04-06T11:36:38.728Z,98855.86
2024-04-06T11:39:07.230Z,98852.41
2024-04-06T11:41:35.713Z,98852.19
2024-04-06T11:44:05.220Z,98851.98
2024-04-06T11:46:35.654Z,98847.33
2024-04-06T11:49:06.964Z,98841.83
2024-04-06T11:51:35.434Z,98843.27
2024-04-06T11:54:04.030Z,98845.72
2024-04-06T11:56:32.609Z,98841.38
2024-04-06T11:59:01.167Z,98838.58
2024-04-06T12:01:29.664Z,98841.59
2024-04-06T12:03:58.152Z,98840.94
2024-04-06T12:06:26.869Z,98844.40
2024-04-06T12:08:55.453Z,98839.17
2024-04-06T12:11:23.947Z,98836.13
2024-04-06T12:13:52.464Z,98837.61
2024-04-06T12:16:21.823Z,98839.80
2024-04-06T12:18:50.386Z,98839.14
2024-04-06T12:21:18.928Z,98826.93
2024-04-06T12:23:47.432Z,98829.52
2024-04-06T12:26:16.541Z,98828.73
2024-04-06T12:28:45.615Z,98828.54
2024-04-06T12:31:14.210Z,98829.40
2024-04-06T12:33:42.695Z,98828.95
2024-04-06T12:36:11.680Z,98832.23
2024-04-06T12:38:40.168Z,98831.26
2024-04-06T12:41:08.942Z,98831.64
2024-04-06T12:43:37.419Z,98825.52
2024-04-06T12:46:05.960Z,98833.30
2024-04-06T12:48:34.805Z,98837.77
2024-04-06T12:51:04.916Z,98841.88
2024-04-06T12:53:34.536Z,98841.30
2024-04-06T12:56:03.075Z,98845.30
2024-04-06T12:58:31.631Z,98848.72
2024-04-06T13:01:00.119Z,98846.98
2024-04-06T13:03:28.599Z,98847.90
2024-04-06T13:06:03.473Z,98848.79
2024-04-06T13:08:33.311Z,98849.79
2024-04-06T13:11:01.857Z,98852.17
2024-04-06T13:13:30.358Z,98848.36
2024-04-06T13:15:58.850Z,98849.55
2024-04-06T13:18:27.684Z,98846.39
2024-04-06T13:21:04.517Z,98844.27
2024-04-06T13:23:33.246Z,98843.64
2024-04-06T13:26:01.717Z,98846.33
2024-04-06T13:28:30.207Z,98844.36
2024-04-06T13:30:58.809Z,98843.73
2024-04-06T13:33:27.714Z,98846.70
2024-04-06T13:35:57.233Z,98848.70
2024-04-06T13:38:25.749Z,98846.27
2024-04-06T13:40:54.229Z,98846.45
2024-04-06T13:43:22.787Z,98847.45
2024-04-06T13:45:52.339Z,98848.38
2024-04-06T13:48:20.863Z,98848.49
2024-04-06T13:50:55.280Z,98849.85
2024-04-06T13:53:24.014Z,98850.94
2024-04-06T13:55:52.557Z,98850.23
2024-04-06T13:58:23.289Z,98857.58
2024-04-06T14:00:51.920Z,98858.95
2024-04-06T14:03:20.999Z,98859.77
2024-04-06T14:05:51.851Z,98860.77
2024-04-06T14:08:20.792Z,98862.94
2024-04-06T14:10:49.572Z,98862.54
2024-04-06T14:13:18.283Z,98861.77
2024-04-06T14:15:46.821Z,98864.05
2024-04-06T14:18:15.274Z,98864.70
2024-04-06T14:20:43.766Z,98856.02
2024-04-06T14:23:12.262Z,98853.05
2024-04-06T14:25:41.960Z,98851.79
2024-04-06T14:28:10.447Z,98850.04
2024-04-06T14:30:38.961Z,98846.61
2024-04-06T14:33:07.446Z,98848.34
2024-04-06T14:35:35.967Z,98845.98
2024-04-06T14:38:05.369Z,98840.14
2024-04-06T14:40:33.873Z,98843.88
2024-04-06T14:43:02.607Z,98844.02
2024-04-06T14:45:31.180Z,98846.32
2024-04-06T14:48:00.175Z,98846.06
2024-04-06T14:50:28.683Z,98846.30
2024-04-06T14:52:57.366Z,98847.36
2024-04-06T14:55:25.997Z,98847.66
2024-04-06T14:57:54.943Z,98848.27
2024-04-06T15:00:24.379Z,98846.07
2024-04-06T15:02:52.886Z,98846.41
2024-04-06T15:05:21.903Z,98844.25
2024-04-06T15:07:52.501Z,98837.95
2024-04-06T15:10:21.578Z,98837.54
2024-04-06T15:12:50.233Z,98837.13
2024-04-06T15:15:18.731Z,98840.02
2024-04-06T15:17:47.211Z,98844.02
2024-04-06T15:20:15.890Z,98846.97
2024-04-06T15:22:44.372Z,98846.86
2024-04-06T15:25:15.631Z,98848.48
2024-04-06T15:27:47.989Z,98849.92
2024-04-06T15:30:16.489Z,98851.35
2024-04-06T15:32:45.079Z,98853.35
2024-04-06T15:35:13.598Z,98854.15
2024-04-06T15:37:42.152Z,98853.78
2024-04-06T15:40:11.292Z,98853.20
2024-04-06T15:42:40.287Z,98856.83
2024-04-06T15:45:09.417Z,98855.85
2024-04-06T15:47:38.117Z,98852.34
2024-04-06T15:50:10.512Z,98853.70
2024-04-06T15:52:39.180Z,98856.30
2024-04-06T15:55:07.880Z,98860.00
2024-04-06T15:57:36.366Z,98860.89
2024-04-06T16:00:06.012Z,98856.42
2024-04-06T16:02:34.722Z,98855.13
2024-04-06T16:05:03.705Z,98861.55
2024-04-06T16:07:32.158Z,98860.08
2024-04-06T16:10:00.676Z,98857.35
2024-04-06T16:12:29.402Z,98855.86
2024-04-06T16:14:57.889Z,98855.73
2024-04-06T16:17:26.462Z,98862.58
2024-04-06T16:19:55.122Z,98864.48
2024-04-06T16:22:23.811Z,98869.21
2024-04-06T16:24:53.497Z,98871.75
2024-04-06T16:27:23.278Z,98870.16
2024-04-06T16:29:51.838Z,98872.02
2024-04-06T16:32:20.391Z,98875.63
2024-04-06T16:34:48.835Z,98874.06
2024-04-06T16:37:17.945Z,98872.64
2024-04-06T16:39:46.408Z,98867.88
2024-04-06T16:42:14.927Z,98865.23
2024-04-06T16:44:43.831Z,98862.64
2024-04-06T16:47:12.825Z,98866.17
2024-04-06T16:49:41.685Z,98864.73
2024-04-06T16:52:10.389Z,98862.00
2024-04-06T16:54:38.886Z,98872.26
2024-04-06T16:57:07.551Z,98874.50
2024-04-06T16:59:37.360Z,98878.02
2024-04-06T17:02:06.282Z,98878.90
2024-04-06T17:04:35.123Z,98881.80
2024-04-06T17:07:03.599Z,98890.36
2024-04-06T17:09:32.845Z,98890.13
2024-04-06T17:12:01.425Z,98888.86
2024-04-06T17:14:30.025Z,98891.52
2024-04-06T17:16:58.545Z,98894.30
2024-04-06T17:19:27.092Z,98889.49
2024-04-06T17:21:55.698Z,98894.40
2024-04-06T17:24:24.154Z,98894.84
2024-04-06T17:26:52.671Z,98895.98
2024-04-06T17:29:21.149Z,98899.05
2024-04-06T17:31:50.254Z,98897.45
2024-04-06T17:34:19.244Z,98897.38
2024-04-06T17:36:47.816Z,98901.94
2024-04-06T17:39:16.350Z,98902.91
2024-04-06T17:41:44.884Z,98901.00
2024-04-06T17:44:13.446Z,98897.34
2024-04-06T17:46:42.384Z,98900.27
2024-04-06T17:49:12.049Z,98898.30
2024-04-06T17:51:41.116Z,98896.07
2024-04-06T17:54:09.788Z,98901.11
2024-04-06T17:56:38.462Z,98896.66
2024-04-06T17:59:07.141Z,98892.61
2024-04-06T18:01:36.326Z,98892.93
2024-04-06T18:04:05.184Z,98899.79
2024-04-06T18:06:36.705Z,98903.02
2024-04-06T18:09:05.416Z,98907.90
2024-04-06T18:11:34.020Z,98911.59
2024-04-06T18:14:02.511Z,98916.86
2024-04-06T18:16:31.066Z,98914.30
2024-04-06T18:19:02.250Z,98918.80
2024-04-06T18:21:31.250Z,98919.30
2024-04-06T18:23:59.796Z,98921.00
2024-04-06T18:26:28.285Z,98924.81
2024-04-06T18:28:56.916Z,98922.34
2024-04-06T18:31:25.529Z,98921.14
2024-04-06T18:33:54.486Z,98924.48
2024-04-06T18:36:22.955Z,98922.70
2024-04-06T18:38:51.706Z,98925.25
2024-04-06T18:41:23.586Z,98928.89
2024-04-06T18:43:52.157Z,98926.66
2024-04-06T18:46:20.880Z,98931.94
2024-04-06T18:48:49.328Z,98931.93
2024-04-06T18:51:18.267Z,98930.45
2024-04-06T18:53:46.766Z,98931.61
2024-04-06T18:56:15.258Z,98936.45
2024-04-06T18:58:43.741Z,98940.31
2024-04-06T19:01:24.839Z,98944.04
2024-04-06T19:03:57.142Z,98941.96
2024-04-06T19:06:26.425Z,98940.44
2024-04-06T19:08:54.927Z,98940.72
2024-04-06T19:11:23.500Z,98942.80
2024-04-06T19:13:51.998Z,98940.87
2024-04-06T19:16:20.486Z,98935.73
2024-04-06T19:18:49.008Z,98934.85
2024-04-06T19:21:17.701Z,98941.05
2024-04-06T19:23:46.973Z,98938.08
2024-04-06T19:26:15.781Z,98943.82
2024-04-06T19:28:44.362Z,98945.23
2024-04-06T19:31:12.968Z,98951.75
2024-04-06T19:33:41.586Z,98961.95
2024-04-06T19:36:10.172Z,98968.05
2024-04-06T19:38:39.079Z,98969.16
2024-04-06T19:41:07.587Z,98971.66
2024-04-06T19:43:36.106Z,98972.14
2024-04-06T19:46:04.897Z,98980.02
2024-04-06T19:48:33.400Z,98980.59
2024-04-06T19:51:02.479Z,98985.81
2024-04-06T19:53:30.964Z,98984.34
2024-04-06T19:56:00.164Z,98987.37
2024-04-06T19:58:28.803Z,98986.80
2024-04-06T20:00:57.498Z,98984.44
2024-04-06T20:03:26.026Z,98986.93
2024-04-06T20:06:03.813Z,98986.45
2024-04-06T20:08:38.589Z,98984.95
2024-04-06T20:11:07.209Z,98987.28
2024-04-06T20:13:37.566Z,98991.25
2024-04-06T20:16:06.246Z,98981.66
2024-04-06T20:18:34.746Z,98983.08
2024-04-06T20:21:06.384Z,98983.72
2024-04-06T20:23:52.184Z,98976.44
2024-04-06T20:26:20.656Z,98977.68
2024-04-06T20:28:49.517Z,98977.14
2024-04-06T20:31:18.567Z,98977.77
2024-04-06T20:33:47.031Z,98978.86
2024-04-06T20:36:16.523Z,98975.41
2024-04-06T20:38:45.159Z,98971.45
2024-04-06T20:41:15.578Z,98971.68
2024-04-06T20:43:49.086Z,98967.46
2024-04-06T20:46:17.916Z,98965.02
2024-04-06T20:48:46.389Z,98964.91
2024-04-06T20:51:14.919Z,98959.33
2024-04-06T20:53:43.431Z,98959.22
2024-04-06T20:56:12.416Z,98971.14
2024-04-06T20:58:40.937Z,98968.89
2024-04-06T21:01:10.270Z,98966.52
2024-04-06T21:03:38.803Z,98965.61
2024-04-06T21:06:10.794Z,98967.61
2024-04-06T21:08:41.398Z,98967.19
2024-04-06T21:11:09.903Z,98974.84
2024-04-06T21:13:38.501Z,98977.73
2024-04-06T21:16:07.229Z,98976.45
2024-04-06T21:18:35.774Z,98979.29
2024-04-06T21:21:04.554Z,98975.12
2024-04-06T21:23:33.471Z,98975.17
2024-04-06T21:26:02.499Z,98980.55
2024-04-06T21:28:31.373Z,98977.53
2024-04-06T21:30:59.889Z,98987.12
2024-04-06T21:33:28.412Z,98991.59
2024-04-06T21:35:57.102Z,98985.02
2024-04-06T21:38:25.566Z,98987.15
2024-04-06T21:40:54.212Z,98996.00
2024-04-06T21:43:22.709Z,99004.91
2024-04-06T21:45:51.184Z,99002.69
2024-04-06T21:48:22.326Z,99002.48
2024-04-06T21:50:50.999Z,99004.35
2024-04-06T21:53:19.986Z,99009.48
2024-04-06T21:55:51.674Z,99012.11
2024-04-06T21:58:20.397Z,99012.45
2024-04-06T22:00:48.890Z,99013.04
2024-04-06T22:03:17.380Z,99010.48
2024-04-06T22:05:45.896Z,99009.59
2024-04-06T22:08:14.933Z,99011.23
2024-04-06T22:10:45.349Z,99017.00
2024-04-06T22:13:14.396Z,99015.11
2024-04-06T22:15:42.855Z,99015.27
2024-04-06T22:18:11.324Z,99018.15
2024-04-06T22:20:39.805Z,99016.99
2024-04-06T22:23:08.316Z,99016.08
2024-04-06T22:25:36.839Z,99016.19
2024-04-06T22:28:05.683Z,99023.93
2024-04-06T22:30:34.241Z,99024.98
2024-04-06T22:33:02.798Z,99027.59
2024-04-06T22:35:31.291Z,99029.98
2024-04-06T22:37:59.789Z,99034.63
2024-04-06T22:40:28.384Z,99037.52
2024-04-06T22:42:56.846Z,99035.58
2024-04-06T22:45:25.833Z,99037.86
2024-04-06T22:47:54.364Z,99038.23
2024-04-06T22:50:22.858Z,99035.39
2024-04-06T22:52:51.355Z,99039.90
2024-04-06T22:55:19.946Z,99040.38
2024-04-06T22:57:48.408Z,99037.73
2024-04-06T23:00:17.006Z,99036.86
2024-04-06T23:02:45.633Z,99037.84
2024-04-06T23:05:14.163Z,99046.80
2024-04-06T23:07:42.771Z,99045.67
2024-04-06T23:10:11.347Z,99045.78
2024-04-06T23:12:39.815Z,99042.84
2024-04-06T23:15:09.276Z,99048.53
2024-04-06T23:17:37.752Z,99044.82
2024-04-06T23:20:06.855Z,99043.62
2024-04-06T23:22:35.389Z,99042.38
2024-04-06T23:25:07.500Z,99033.84
2024-04-06T23:27:36.173Z,99031.60
2024-04-06T23:30:04.759Z,99030.52
2024-04-06T23:32:33.252Z,99027.15
2024-04-06T23:35:01.785Z,99021.64
2024-04-06T23:37:30.315Z,99026.35
2024-04-06T23:39:58.810Z,99028.05
2024-04-06T23:42:27.326Z,99031.73
2024-04-06T23:44:56.199Z,99033.13
2024-04-06T23:47:24.697Z,99030.23
2024-04-06T23:49:53.574Z,99027.81
2024-04-06T23:52:22.271Z,99031.55
2024-04-06T23:54:50.758Z,99031.45
2024-04-06T23:57:19.251Z,99033.31
2024-04-06T23:59:47.767Z,99032.02
